sensor_id;sensor_type;location;lat;lon;timestamp;temperature;humidity
75008;DHT22;63554;48.940;12.050;2022-09-24T00:02:05;8.80;80.70
75008;DHT22;63554;48.940;12.050;2022-09-24T00:06:12;8.80;80.70
75008;DHT22;63554;48.940;12.050;2022-09-24T00:10:15;8.80;80.20
75008;DHT22;63554;48.940;12.050;2022-09-24T00:14:18;8.90;79.60
75008;DHT22;63554;48.940;12.050;2022-09-24T00:18:23;8.90;79.70
75008;DHT22;63554;48.940;12.050;2022-09-24T00:22:26;9.00;79.20
75008;DHT22;63554;48.940;12.050;2022-09-24T00:26:29;8.90;80.10
75008;DHT22;63554;48.940;12.050;2022-09-24T00:30:49;9.00;81.00
75008;DHT22;63554;48.940;12.050;2022-09-24T00:34:54;8.80;82.60
75008;DHT22;63554;48.940;12.050;2022-09-24T00:38:58;8.50;83.60
75008;DHT22;63554;48.940;12.050;2022-09-24T00:43:01;8.60;83.30
75008;DHT22;63554;48.940;12.050;2022-09-24T00:47:04;8.80;83.20
75008;DHT22;63554;48.940;12.050;2022-09-24T00:51:11;8.60;83.10
75008;DHT22;63554;48.940;12.050;2022-09-24T00:55:17;8.60;83.50
75008;DHT22;63554;48.940;12.050;2022-09-24T00:59:22;8.60;82.90
75008;DHT22;63554;48.940;12.050;2022-09-24T01:03:26;8.60;82.50
75008;DHT22;63554;48.940;12.050;2022-09-24T01:07:31;8.50;82.10
75008;DHT22;63554;48.940;12.050;2022-09-24T01:11:41;8.50;81.90
75008;DHT22;63554;48.940;12.050;2022-09-24T01:15:51;8.60;81.80
75008;DHT22;63554;48.940;12.050;2022-09-24T01:20:25;8.60;82.60
75008;DHT22;63554;48.940;12.050;2022-09-24T01:24:48;8.50;82.50
75008;DHT22;63554;48.940;12.050;2022-09-24T01:29:14;8.50;82.70
75008;DHT22;63554;48.940;12.050;2022-09-24T01:33:21;8.50;82.70
75008;DHT22;63554;48.940;12.050;2022-09-24T01:37:29;8.60;82.50
75008;DHT22;63554;48.940;12.050;2022-09-24T01:41:34;8.60;82.70
75008;DHT22;63554;48.940;12.050;2022-09-24T01:45:41;8.50;82.70
75008;DHT22;63554;48.940;12.050;2022-09-24T01:49:44;8.60;82.50
75008;DHT22;63554;48.940;12.050;2022-09-24T01:53:51;8.60;81.80
75008;DHT22;63554;48.940;12.050;2022-09-24T01:57:59;8.60;81.80
75008;DHT22;63554;48.940;12.050;2022-09-24T02:02:09;8.60;81.20
75008;DHT22;63554;48.940;12.050;2022-09-24T02:06:15;8.70;79.80
75008;DHT22;63554;48.940;12.050;2022-09-24T02:10:19;8.60;79.70
75008;DHT22;63554;48.940;12.050;2022-09-24T02:14:23;8.60;79.70
75008;DHT22;63554;48.940;12.050;2022-09-24T02:18:32;8.50;80.70
75008;DHT22;63554;48.940;12.050;2022-09-24T02:22:37;8.40;81.10
75008;DHT22;63554;48.940;12.050;2022-09-24T02:26:41;8.40;80.70
75008;DHT22;63554;48.940;12.050;2022-09-24T02:30:49;8.40;80.80
75008;DHT22;63554;48.940;12.050;2022-09-24T02:34:57;8.20;80.90
75008;DHT22;63554;48.940;12.050;2022-09-24T02:39:03;8.20;81.40
75008;DHT22;63554;48.940;12.050;2022-09-24T02:43:06;8.30;80.90
75008;DHT22;63554;48.940;12.050;2022-09-24T02:47:10;8.20;81.60
75008;DHT22;63554;48.940;12.050;2022-09-24T02:51:15;8.00;82.10
75008;DHT22;63554;48.940;12.050;2022-09-24T02:55:17;8.10;81.90
75008;DHT22;63554;48.940;12.050;2022-09-24T02:59:20;8.10;81.30
75008;DHT22;63554;48.940;12.050;2022-09-24T03:03:23;8.00;81.50
75008;DHT22;63554;48.940;12.050;2022-09-24T03:07:28;8.00;81.50
75008;DHT22;63554;48.940;12.050;2022-09-24T03:11:31;8.10;81.10
75008;DHT22;63554;48.940;12.050;2022-09-24T03:15:34;8.00;81.20
75008;DHT22;63554;48.940;12.050;2022-09-24T03:19:37;7.90;81.70
75008;DHT22;63554;48.940;12.050;2022-09-24T03:23:41;7.90;81.40
75008;DHT22;63554;48.940;12.050;2022-09-24T03:27:44;7.80;82.30
75008;DHT22;63554;48.940;12.050;2022-09-24T03:31:47;7.80;81.40
75008;DHT22;63554;48.940;12.050;2022-09-24T03:35:54;7.80;81.80
75008;DHT22;63554;48.940;12.050;2022-09-24T03:39:58;7.80;81.00
75008;DHT22;63554;48.940;12.050;2022-09-24T03:44:02;7.80;81.40
75008;DHT22;63554;48.940;12.050;2022-09-24T03:48:04;7.90;80.70
75008;DHT22;63554;48.940;12.050;2022-09-24T03:52:07;7.80;80.60
75008;DHT22;63554;48.940;12.050;2022-09-24T03:56:12;7.90;80.90
75008;DHT22;63554;48.940;12.050;2022-09-24T04:00:15;7.90;80.90
75008;DHT22;63554;48.940;12.050;2022-09-24T04:04:18;7.80;81.00
75008;DHT22;63554;48.940;12.050;2022-09-24T04:08:21;7.70;81.50
75008;DHT22;63554;48.940;12.050;2022-09-24T04:12:26;7.80;81.90
75008;DHT22;63554;48.940;12.050;2022-09-24T04:16:30;7.70;82.60
75008;DHT22;63554;48.940;12.050;2022-09-24T04:20:34;7.70;82.00
75008;DHT22;63554;48.940;12.050;2022-09-24T04:24:37;7.80;81.30
75008;DHT22;63554;48.940;12.050;2022-09-24T04:28:41;7.70;82.60
75008;DHT22;63554;48.940;12.050;2022-09-24T04:32:44;7.80;82.10
75008;DHT22;63554;48.940;12.050;2022-09-24T04:36:47;7.70;82.40
75008;DHT22;63554;48.940;12.050;2022-09-24T04:40:50;7.80;82.10
75008;DHT22;63554;48.940;12.050;2022-09-24T04:44:54;7.90;81.90
75008;DHT22;63554;48.940;12.050;2022-09-24T04:48:57;7.80;81.50
75008;DHT22;63554;48.940;12.050;2022-09-24T04:53:00;7.80;82.10
75008;DHT22;63554;48.940;12.050;2022-09-24T04:57:03;7.80;81.90
75008;DHT22;63554;48.940;12.050;2022-09-24T05:01:08;7.80;81.60
75008;DHT22;63554;48.940;12.050;2022-09-24T05:05:11;7.70;82.30
75008;DHT22;63554;48.940;12.050;2022-09-24T05:09:14;7.50;83.20
75008;DHT22;63554;48.940;12.050;2022-09-24T05:13:17;7.60;82.60
75008;DHT22;63554;48.940;12.050;2022-09-24T05:17:22;7.50;83.20
75008;DHT22;63554;48.940;12.050;2022-09-24T05:21:25;7.50;83.00
75008;DHT22;63554;48.940;12.050;2022-09-24T05:25:28;7.50;83.00
75008;DHT22;63554;48.940;12.050;2022-09-24T05:29:31;7.50;82.90
75008;DHT22;63554;48.940;12.050;2022-09-24T05:33:35;7.50;82.60
75008;DHT22;63554;48.940;12.050;2022-09-24T05:37:38;7.50;82.70
75008;DHT22;63554;48.940;12.050;2022-09-24T05:41:41;7.60;82.90
75008;DHT22;63554;48.940;12.050;2022-09-24T05:45:45;7.80;82.70
75008;DHT22;63554;48.940;12.050;2022-09-24T05:49:49;8.00;82.10
75008;DHT22;63554;48.940;12.050;2022-09-24T05:53:52;8.00;82.00
75008;DHT22;63554;48.940;12.050;2022-09-24T05:57:55;8.10;81.70
75008;DHT22;63554;48.940;12.050;2022-09-24T06:01:58;8.10;82.10
75008;DHT22;63554;48.940;12.050;2022-09-24T06:06:02;8.00;82.60
75008;DHT22;63554;48.940;12.050;2022-09-24T06:10:06;8.00;82.40
75008;DHT22;63554;48.940;12.050;2022-09-24T06:14:09;8.10;82.20
75008;DHT22;63554;48.940;12.050;2022-09-24T06:18:13;8.20;82.00
75008;DHT22;63554;48.940;12.050;2022-09-24T06:22:18;8.40;81.70
75008;DHT22;63554;48.940;12.050;2022-09-24T06:26:28;8.60;80.70
75008;DHT22;63554;48.940;12.050;2022-09-24T06:30:33;8.70;81.40
75008;DHT22;63554;48.940;12.050;2022-09-24T06:34:36;8.80;80.70
75008;DHT22;63554;48.940;12.050;2022-09-24T06:38:41;9.00;80.40
75008;DHT22;63554;48.940;12.050;2022-09-24T06:42:49;9.00;81.50
75008;DHT22;63554;48.940;12.050;2022-09-24T06:46:52;9.00;80.50
75008;DHT22;63554;48.940;12.050;2022-09-24T06:50:55;9.20;80.60
75008;DHT22;63554;48.940;12.050;2022-09-24T06:54:59;9.20;80.40
75008;DHT22;63554;48.940;12.050;2022-09-24T06:59:03;9.40;79.90
75008;DHT22;63554;48.940;12.050;2022-09-24T07:03:12;9.40;80.20
75008;DHT22;63554;48.940;12.050;2022-09-24T07:07:15;9.40;79.70
75008;DHT22;63554;48.940;12.050;2022-09-24T07:11:35;9.50;80.30
75008;DHT22;63554;48.940;12.050;2022-09-24T07:15:38;9.60;79.60
75008;DHT22;63554;48.940;12.050;2022-09-24T07:19:41;9.60;80.60
75008;DHT22;63554;48.940;12.050;2022-09-24T07:23:44;9.80;79.60
75008;DHT22;63554;48.940;12.050;2022-09-24T07:27:49;10.00;79.40
75008;DHT22;63554;48.940;12.050;2022-09-24T07:31:52;10.00;79.20
75008;DHT22;63554;48.940;12.050;2022-09-24T07:35:55;10.00;79.10
75008;DHT22;63554;48.940;12.050;2022-09-24T07:39:58;9.90;79.50
75008;DHT22;63554;48.940;12.050;2022-09-24T07:44:02;10.00;79.60
75008;DHT22;63554;48.940;12.050;2022-09-24T07:48:05;10.00;78.90
75008;DHT22;63554;48.940;12.050;2022-09-24T07:52:09;10.00;79.30
75008;DHT22;63554;48.940;12.050;2022-09-24T07:56:12;10.10;79.70
75008;DHT22;63554;48.940;12.050;2022-09-24T08:00:18;10.20;78.60
75008;DHT22;63554;48.940;12.050;2022-09-24T08:04:21;10.40;79.10
75008;DHT22;63554;48.940;12.050;2022-09-24T08:08:25;10.60;78.50
75008;DHT22;63554;48.940;12.050;2022-09-24T08:12:28;10.60;77.30
75008;DHT22;63554;48.940;12.050;2022-09-24T08:16:32;10.50;77.60
75008;DHT22;63554;48.940;12.050;2022-09-24T08:20:37;10.50;78.10
75008;DHT22;63554;48.940;12.050;2022-09-24T08:24:40;10.60;77.90
75008;DHT22;63554;48.940;12.050;2022-09-24T08:28:43;10.60;78.10
75008;DHT22;63554;48.940;12.050;2022-09-24T08:32:48;10.70;77.80
75008;DHT22;63554;48.940;12.050;2022-09-24T08:36:51;10.80;78.10
75008;DHT22;63554;48.940;12.050;2022-09-24T08:40:58;11.00;77.50
75008;DHT22;63554;48.940;12.050;2022-09-24T08:45:04;11.10;77.70
75008;DHT22;63554;48.940;12.050;2022-09-24T08:49:29;11.50;77.70
75008;DHT22;63554;48.940;12.050;2022-09-24T08:53:41;11.70;76.30
75008;DHT22;63554;48.940;12.050;2022-09-24T08:57:53;11.70;75.90
75008;DHT22;63554;48.940;12.050;2022-09-24T09:02:12;11.80;75.40
75008;DHT22;63554;48.940;12.050;2022-09-24T09:06:41;11.70;75.80
75008;DHT22;63554;48.940;12.050;2022-09-24T09:10:48;12.00;76.40
75008;DHT22;63554;48.940;12.050;2022-09-24T09:14:59;12.10;75.00
75008;DHT22;63554;48.940;12.050;2022-09-24T09:19:04;12.30;75.30
75008;DHT22;63554;48.940;12.050;2022-09-24T09:23:14;12.40;75.00
75008;DHT22;63554;48.940;12.050;2022-09-24T09:27:19;12.70;73.90
75008;DHT22;63554;48.940;12.050;2022-09-24T09:31:30;12.70;74.20
75008;DHT22;63554;48.940;12.050;2022-09-24T09:35:40;12.90;73.40
75008;DHT22;63554;48.940;12.050;2022-09-24T09:39:50;12.90;73.50
75008;DHT22;63554;48.940;12.050;2022-09-24T09:43:59;12.80;73.90
75008;DHT22;63554;48.940;12.050;2022-09-24T09:48:04;12.80;73.30
75008;DHT22;63554;48.940;12.050;2022-09-24T09:52:13;12.80;73.60
75008;DHT22;63554;48.940;12.050;2022-09-24T09:56:22;13.00;72.90
75008;DHT22;63554;48.940;12.050;2022-09-24T10:00:31;12.90;73.90
75008;DHT22;63554;48.940;12.050;2022-09-24T10:04:37;13.00;74.10
75008;DHT22;63554;48.940;12.050;2022-09-24T10:08:41;13.10;73.20
75008;DHT22;63554;48.940;12.050;2022-09-24T10:12:45;13.20;74.20
75008;DHT22;63554;48.940;12.050;2022-09-24T10:16:52;13.30;72.90
75008;DHT22;63554;48.940;12.050;2022-09-24T10:20:56;13.40;73.00
75008;DHT22;63554;48.940;12.050;2022-09-24T10:24:59;13.30;73.00
75008;DHT22;63554;48.940;12.050;2022-09-24T10:29:05;13.40;73.80
75008;DHT22;63554;48.940;12.050;2022-09-24T10:33:34;13.50;74.30
75008;DHT22;63554;48.940;12.050;2022-09-24T10:37:49;13.50;72.70
75008;DHT22;63554;48.940;12.050;2022-09-24T10:41:54;13.20;74.40
75008;DHT22;63554;48.940;12.050;2022-09-24T10:46:09;13.30;73.80
75008;DHT22;63554;48.940;12.050;2022-09-24T10:50:26;13.10;74.60
75008;DHT22;63554;48.940;12.050;2022-09-24T10:54:43;13.10;74.60
75008;DHT22;63554;48.940;12.050;2022-09-24T10:59:09;13.10;75.20
75008;DHT22;63554;48.940;12.050;2022-09-24T11:03:49;13.30;74.20
75008;DHT22;63554;48.940;12.050;2022-09-24T11:08:03;13.50;75.80
75008;DHT22;63554;48.940;12.050;2022-09-24T11:12:14;13.50;74.50
75008;DHT22;63554;48.940;12.050;2022-09-24T11:16:34;13.50;74.50
75008;DHT22;63554;48.940;12.050;2022-09-24T11:20:47;13.50;74.60
75008;DHT22;63554;48.940;12.050;2022-09-24T11:25:19;13.40;75.20
75008;DHT22;63554;48.940;12.050;2022-09-24T11:29:44;13.40;76.50
75008;DHT22;63554;48.940;12.050;2022-09-24T11:34:08;13.50;75.30
75008;DHT22;63554;48.940;12.050;2022-09-24T11:38:17;13.30;76.20
75008;DHT22;63554;48.940;12.050;2022-09-24T11:42:26;13.30;76.10
75008;DHT22;63554;48.940;12.050;2022-09-24T11:46:42;13.50;76.30
75008;DHT22;63554;48.940;12.050;2022-09-24T11:50:56;13.60;75.20
75008;DHT22;63554;48.940;12.050;2022-09-24T11:55:11;13.60;75.70
75008;DHT22;63554;48.940;12.050;2022-09-24T11:59:21;13.50;76.20
75008;DHT22;63554;48.940;12.050;2022-09-24T12:03:34;13.50;77.30
75008;DHT22;63554;48.940;12.050;2022-09-24T12:07:46;13.50;76.60
75008;DHT22;63554;48.940;12.050;2022-09-24T12:11:54;13.50;76.30
75008;DHT22;63554;48.940;12.050;2022-09-24T12:16:02;13.50;76.70
75008;DHT22;63554;48.940;12.050;2022-09-24T12:20:15;13.50;77.30
75008;DHT22;63554;48.940;12.050;2022-09-24T12:24:22;13.50;77.50
75008;DHT22;63554;48.940;12.050;2022-09-24T12:28:37;13.50;76.90
75008;DHT22;63554;48.940;12.050;2022-09-24T12:33:05;13.50;77.20
75008;DHT22;63554;48.940;12.050;2022-09-24T12:37:22;13.60;77.70
75008;DHT22;63554;48.940;12.050;2022-09-24T12:41:28;16.80;70.30
75008;DHT22;63554;48.940;12.050;2022-09-24T12:45:37;14.90;71.60
75008;DHT22;63554;48.940;12.050;2022-09-24T12:49:40;14.00;75.30
75008;DHT22;63554;48.940;12.050;2022-09-24T12:53:57;13.70;76.40
75008;DHT22;63554;48.940;12.050;2022-09-24T12:58:03;13.80;76.80
75008;DHT22;63554;48.940;12.050;2022-09-24T13:02:16;13.70;76.80
75008;DHT22;63554;48.940;12.050;2022-09-24T13:06:22;13.60;76.70
75008;DHT22;63554;48.940;12.050;2022-09-24T13:10:37;13.50;77.30
75008;DHT22;63554;48.940;12.050;2022-09-24T13:14:55;13.60;77.70
75008;DHT22;63554;48.940;12.050;2022-09-24T13:19:03;13.60;78.00
75008;DHT22;63554;48.940;12.050;2022-09-24T13:23:11;13.70;77.90
75008;DHT22;63554;48.940;12.050;2022-09-24T13:27:32;13.70;78.50
75008;DHT22;63554;48.940;12.050;2022-09-24T13:31:41;13.80;77.40
75008;DHT22;63554;48.940;12.050;2022-09-24T13:36:03;13.80;77.60
75008;DHT22;63554;48.940;12.050;2022-09-24T13:40:17;13.70;77.50
75008;DHT22;63554;48.940;12.050;2022-09-24T13:44:24;13.60;79.20
75008;DHT22;63554;48.940;12.050;2022-09-24T13:48:33;13.60;78.80
75008;DHT22;63554;48.940;12.050;2022-09-24T13:52:43;13.60;78.30
75008;DHT22;63554;48.940;12.050;2022-09-24T13:56:58;13.60;78.80
75008;DHT22;63554;48.940;12.050;2022-09-24T14:01:06;13.60;79.20
75008;DHT22;63554;48.940;12.050;2022-09-24T14:05:16;13.60;79.80
75008;DHT22;63554;48.940;12.050;2022-09-24T14:09:30;13.50;81.10
75008;DHT22;63554;48.940;12.050;2022-09-24T14:13:34;13.60;80.30
75008;DHT22;63554;48.940;12.050;2022-09-24T14:17:39;13.60;80.30
75008;DHT22;63554;48.940;12.050;2022-09-24T14:21:45;13.60;80.00
75008;DHT22;63554;48.940;12.050;2022-09-24T14:25:51;13.30;80.50
75008;DHT22;63554;48.940;12.050;2022-09-24T14:29:57;13.40;81.00
75008;DHT22;63554;48.940;12.050;2022-09-24T14:34:03;13.50;81.70
75008;DHT22;63554;48.940;12.050;2022-09-24T14:38:11;13.50;81.60
75008;DHT22;63554;48.940;12.050;2022-09-24T14:42:22;13.40;81.60
75008;DHT22;63554;48.940;12.050;2022-09-24T14:46:29;13.30;82.30
75008;DHT22;63554;48.940;12.050;2022-09-24T14:50:36;13.30;81.60
75008;DHT22;63554;48.940;12.050;2022-09-24T14:54:39;13.30;81.50
75008;DHT22;63554;48.940;12.050;2022-09-24T14:58:43;13.30;81.50
75008;DHT22;63554;48.940;12.050;2022-09-24T15:02:49;13.30;81.80
75008;DHT22;63554;48.940;12.050;2022-09-24T15:06:52;13.30;83.00
75008;DHT22;63554;48.940;12.050;2022-09-24T15:10:57;13.30;82.60
75008;DHT22;63554;48.940;12.050;2022-09-24T15:15:06;13.30;82.20
75008;DHT22;63554;48.940;12.050;2022-09-24T15:19:27;13.30;83.20
75008;DHT22;63554;48.940;12.050;2022-09-24T15:23:31;13.10;83.40
75008;DHT22;63554;48.940;12.050;2022-09-24T15:27:37;13.10;84.50
75008;DHT22;63554;48.940;12.050;2022-09-24T15:31:41;13.30;83.80
75008;DHT22;63554;48.940;12.050;2022-09-24T15:35:45;13.20;84.00
75008;DHT22;63554;48.940;12.050;2022-09-24T15:39:48;13.20;84.70
75008;DHT22;63554;48.940;12.050;2022-09-24T15:43:55;13.20;84.80
75008;DHT22;63554;48.940;12.050;2022-09-24T15:48:00;13.10;85.70
75008;DHT22;63554;48.940;12.050;2022-09-24T15:52:06;13.10;85.80
75008;DHT22;63554;48.940;12.050;2022-09-24T15:56:09;13.10;85.60
75008;DHT22;63554;48.940;12.050;2022-09-24T16:00:14;12.90;86.70
75008;DHT22;63554;48.940;12.050;2022-09-24T16:04:19;12.90;86.90
75008;DHT22;63554;48.940;12.050;2022-09-24T16:08:22;13.00;86.20
75008;DHT22;63554;48.940;12.050;2022-09-24T16:12:25;13.10;86.00
75008;DHT22;63554;48.940;12.050;2022-09-24T16:16:29;13.00;85.70
75008;DHT22;63554;48.940;12.050;2022-09-24T16:20:37;12.90;86.00
75008;DHT22;63554;48.940;12.050;2022-09-24T16:24:40;12.90;86.40
75008;DHT22;63554;48.940;12.050;2022-09-24T16:28:43;13.00;86.30
75008;DHT22;63554;48.940;12.050;2022-09-24T16:32:48;13.00;86.10
75008;DHT22;63554;48.940;12.050;2022-09-24T16:36:52;13.00;85.90
75008;DHT22;63554;48.940;12.050;2022-09-24T16:40:58;12.90;86.30
75008;DHT22;63554;48.940;12.050;2022-09-24T16:45:01;13.00;85.70
75008;DHT22;63554;48.940;12.050;2022-09-24T16:49:04;13.10;85.60
75008;DHT22;63554;48.940;12.050;2022-09-24T16:53:09;13.00;85.30
75008;DHT22;63554;48.940;12.050;2022-09-24T16:57:12;13.00;85.40
75008;DHT22;63554;48.940;12.050;2022-09-24T17:01:16;13.10;85.10
75008;DHT22;63554;48.940;12.050;2022-09-24T17:05:19;13.10;85.20
75008;DHT22;63554;48.940;12.050;2022-09-24T17:09:24;13.00;86.30
75008;DHT22;63554;48.940;12.050;2022-09-24T17:13:45;12.80;87.40
75008;DHT22;63554;48.940;12.050;2022-09-24T17:17:48;12.80;88.10
75008;DHT22;63554;48.940;12.050;2022-09-24T17:21:51;12.70;88.20
75008;DHT22;63554;48.940;12.050;2022-09-24T17:26:01;12.80;87.20
75008;DHT22;63554;48.940;12.050;2022-09-24T17:30:05;12.80;87.50
75008;DHT22;63554;48.940;12.050;2022-09-24T17:34:09;12.80;88.10
75008;DHT22;63554;48.940;12.050;2022-09-24T17:38:13;12.70;88.30
75008;DHT22;63554;48.940;12.050;2022-09-24T17:42:18;12.70;87.80
75008;DHT22;63554;48.940;12.050;2022-09-24T17:46:21;12.70;88.60
75008;DHT22;63554;48.940;12.050;2022-09-24T17:50:24;12.60;88.60
75008;DHT22;63554;48.940;12.050;2022-09-24T17:54:27;12.70;88.00
75008;DHT22;63554;48.940;12.050;2022-09-24T17:58:34;12.80;87.70
75008;DHT22;63554;48.940;12.050;2022-09-24T18:02:38;12.70;87.80
75008;DHT22;63554;48.940;12.050;2022-09-24T18:06:42;12.70;87.70
75008;DHT22;63554;48.940;12.050;2022-09-24T18:10:45;12.80;87.50
75008;DHT22;63554;48.940;12.050;2022-09-24T18:14:49;12.80;87.40
75008;DHT22;63554;48.940;12.050;2022-09-24T18:18:52;12.70;87.50
75008;DHT22;63554;48.940;12.050;2022-09-24T18:22:56;12.70;87.40
75008;DHT22;63554;48.940;12.050;2022-09-24T18:26:59;12.70;87.40
75008;DHT22;63554;48.940;12.050;2022-09-24T18:31:04;12.60;87.40
75008;DHT22;63554;48.940;12.050;2022-09-24T18:35:08;12.50;87.20
75008;DHT22;63554;48.940;12.050;2022-09-24T18:39:12;12.50;87.60
75008;DHT22;63554;48.940;12.050;2022-09-24T18:43:25;12.50;87.50
75008;DHT22;63554;48.940;12.050;2022-09-24T18:47:29;12.50;87.40
75008;DHT22;63554;48.940;12.050;2022-09-24T18:51:34;12.60;87.20
75008;DHT22;63554;48.940;12.050;2022-09-24T18:55:38;12.50;87.30
75008;DHT22;63554;48.940;12.050;2022-09-24T18:59:41;12.50;87.40
75008;DHT22;63554;48.940;12.050;2022-09-24T19:03:47;12.50;88.00
75008;DHT22;63554;48.940;12.050;2022-09-24T19:07:50;12.50;88.00
75008;DHT22;63554;48.940;12.050;2022-09-24T19:11:53;12.50;88.00
75008;DHT22;63554;48.940;12.050;2022-09-24T19:15:56;12.50;87.70
75008;DHT22;63554;48.940;12.050;2022-09-24T19:20:01;12.50;87.90
75008;DHT22;63554;48.940;12.050;2022-09-24T19:24:05;12.50;88.20
75008;DHT22;63554;48.940;12.050;2022-09-24T19:28:10;12.50;88.00
75008;DHT22;63554;48.940;12.050;2022-09-24T19:32:13;12.50;87.80
75008;DHT22;63554;48.940;12.050;2022-09-24T19:36:18;12.50;88.00
75008;DHT22;63554;48.940;12.050;2022-09-24T19:40:22;12.50;87.90
75008;DHT22;63554;48.940;12.050;2022-09-24T19:44:25;12.50;88.00
75008;DHT22;63554;48.940;12.050;2022-09-24T19:48:30;12.40;88.40
75008;DHT22;63554;48.940;12.050;2022-09-24T19:52:35;12.30;88.60
75008;DHT22;63554;48.940;12.050;2022-09-24T19:56:38;12.30;89.00
75008;DHT22;63554;48.940;12.050;2022-09-24T20:00:42;12.20;89.60
75008;DHT22;63554;48.940;12.050;2022-09-24T20:04:44;12.10;90.00
75008;DHT22;63554;48.940;12.050;2022-09-24T20:08:49;12.20;89.30
75008;DHT22;63554;48.940;12.050;2022-09-24T20:12:52;12.20;89.10
75008;DHT22;63554;48.940;12.050;2022-09-24T20:16:55;12.30;88.60
75008;DHT22;63554;48.940;12.050;2022-09-24T20:21:01;12.30;88.90
75008;DHT22;63554;48.940;12.050;2022-09-24T20:25:06;12.30;88.80
75008;DHT22;63554;48.940;12.050;2022-09-24T20:29:10;12.30;89.00
75008;DHT22;63554;48.940;12.050;2022-09-24T20:33:13;12.30;88.70
75008;DHT22;63554;48.940;12.050;2022-09-24T20:37:19;12.30;88.70
75008;DHT22;63554;48.940;12.050;2022-09-24T20:41:23;12.30;88.70
75008;DHT22;63554;48.940;12.050;2022-09-24T20:45:27;12.30;88.80
75008;DHT22;63554;48.940;12.050;2022-09-24T20:49:30;12.30;88.60
75008;DHT22;63554;48.940;12.050;2022-09-24T20:53:34;12.20;89.30
75008;DHT22;63554;48.940;12.050;2022-09-24T20:57:38;12.20;88.80
75008;DHT22;63554;48.940;12.050;2022-09-24T21:01:42;12.30;88.90
75008;DHT22;63554;48.940;12.050;2022-09-24T21:05:46;12.50;88.50
75008;DHT22;63554;48.940;12.050;2022-09-24T21:09:49;12.50;88.20
75008;DHT22;63554;48.940;12.050;2022-09-24T21:13:55;12.50;88.20
75008;DHT22;63554;48.940;12.050;2022-09-24T21:18:01;12.30;88.90
75008;DHT22;63554;48.940;12.050;2022-09-24T21:22:23;12.30;88.70
75008;DHT22;63554;48.940;12.050;2022-09-24T21:26:28;12.30;88.70
75008;DHT22;63554;48.940;12.050;2022-09-24T21:30:32;12.30;89.00
75008;DHT22;63554;48.940;12.050;2022-09-24T21:34:36;12.30;88.70
75008;DHT22;63554;48.940;12.050;2022-09-24T21:38:39;12.30;89.20
75008;DHT22;63554;48.940;12.050;2022-09-24T21:42:42;12.30;89.00
75008;DHT22;63554;48.940;12.050;2022-09-24T21:46:48;12.30;89.00
75008;DHT22;63554;48.940;12.050;2022-09-24T21:50:53;12.20;89.40
75008;DHT22;63554;48.940;12.050;2022-09-24T21:54:56;12.20;89.40
75008;DHT22;63554;48.940;12.050;2022-09-24T21:59:00;12.20;89.50
75008;DHT22;63554;48.940;12.050;2022-09-24T22:03:25;12.20;89.40
75008;DHT22;63554;48.940;12.050;2022-09-24T22:07:29;12.20;89.70
75008;DHT22;63554;48.940;12.050;2022-09-24T22:11:32;12.10;90.00
75008;DHT22;63554;48.940;12.050;2022-09-24T22:15:35;12.10;89.70
75008;DHT22;63554;48.940;12.050;2022-09-24T22:19:40;12.20;89.50
75008;DHT22;63554;48.940;12.050;2022-09-24T22:23:43;12.20;89.40
75008;DHT22;63554;48.940;12.050;2022-09-24T22:27:46;12.20;89.30
75008;DHT22;63554;48.940;12.050;2022-09-24T22:31:49;12.30;89.30
75008;DHT22;63554;48.940;12.050;2022-09-24T22:35:55;12.10;89.80
75008;DHT22;63554;48.940;12.050;2022-09-24T22:39:58;12.10;89.90
75008;DHT22;63554;48.940;12.050;2022-09-24T22:44:02;12.10;89.50
75008;DHT22;63554;48.940;12.050;2022-09-24T22:48:05;12.10;89.70
75008;DHT22;63554;48.940;12.050;2022-09-24T22:52:09;12.10;89.60
75008;DHT22;63554;48.940;12.050;2022-09-24T22:56:13;12.10;89.60
75008;DHT22;63554;48.940;12.050;2022-09-24T23:00:16;12.10;89.60
75008;DHT22;63554;48.940;12.050;2022-09-24T23:04:20;12.10;89.70
75008;DHT22;63554;48.940;12.050;2022-09-24T23:08:26;12.10;89.60
75008;DHT22;63554;48.940;12.050;2022-09-24T23:12:33;12.00;89.60
75008;DHT22;63554;48.940;12.050;2022-09-24T23:16:37;12.10;89.30
75008;DHT22;63554;48.940;12.050;2022-09-24T23:20:40;12.20;88.90
75008;DHT22;63554;48.940;12.050;2022-09-24T23:24:45;12.20;88.70
75008;DHT22;63554;48.940;12.050;2022-09-24T23:28:48;12.20;88.70
75008;DHT22;63554;48.940;12.050;2022-09-24T23:32:53;12.10;88.90
75008;DHT22;63554;48.940;12.050;2022-09-24T23:36:56;12.00;89.20
75008;DHT22;63554;48.940;12.050;2022-09-24T23:41:01;11.90;89.30
75008;DHT22;63554;48.940;12.050;2022-09-24T23:45:05;11.90;89.20
75008;DHT22;63554;48.940;12.050;2022-09-24T23:49:08;11.90;89.40
75008;DHT22;63554;48.940;12.050;2022-09-24T23:53:12;11.90;89.40
75008;DHT22;63554;48.940;12.050;2022-09-24T23:57:17;11.90;89.60
